sensor_id;sensor_type;location;lat;lon;timestamp;P1;durP1;ratioP1;P2;durP2;ratioP2
28078;SDS011;15388;42.238;24.684;2023-02-28T00:01:10;20.13;;;11.52;;
28078;SDS011;15388;42.238;24.684;2023-02-28T00:03:36;20.73;;;12.05;;
28078;SDS011;15388;42.238;24.684;2023-02-28T00:06:02;22.70;;;12.35;;
28078;SDS011;15388;42.238;24.684;2023-02-28T00:08:27;15.73;;;10.80;;
28078;SDS011;15388;42.238;24.684;2023-02-28T00:10:54;18.63;;;11.68;;
28078;SDS011;15388;42.238;24.684;2023-02-28T00:13:20;22.67;;;11.65;;
28078;SDS011;15388;42.238;24.684;2023-02-28T00:15:45;22.67;;;11.70;;
28078;SDS011;15388;42.238;24.684;2023-02-28T00:18:11;19.52;;;12.18;;
28078;SDS011;15388;42.238;24.684;2023-02-28T00:20:36;17.02;;;10.40;;
28078;SDS011;15388;42.238;24.684;2023-02-28T00:23:02;25.77;;;11.43;;
28078;SDS011;15388;42.238;24.684;2023-02-28T00:25:27;17.65;;;10.32;;
28078;SDS011;15388;42.238;24.684;2023-02-28T00:27:52;17.38;;;11.20;;
28078;SDS011;15388;42.238;24.684;2023-02-28T00:30:18;17.55;;;11.25;;
28078;SDS011;15388;42.238;24.684;2023-02-28T00:32:44;17.47;;;10.93;;
28078;SDS011;15388;42.238;24.684;2023-02-28T00:35:10;21.52;;;12.10;;
28078;SDS011;15388;42.238;24.684;2023-02-28T00:37:35;23.40;;;12.80;;
28078;SDS011;15388;42.238;24.684;2023-02-28T00:40:01;18.00;;;12.35;;
28078;SDS011;15388;42.238;24.684;2023-02-28T00:42:27;15.57;;;9.70;;
28078;SDS011;15388;42.238;24.684;2023-02-28T00:44:52;14.55;;;8.85;;
28078;SDS011;15388;42.238;24.684;2023-02-28T00:47:17;14.35;;;9.93;;
28078;SDS011;15388;42.238;24.684;2023-02-28T00:49:43;19.60;;;11.35;;
28078;SDS011;15388;42.238;24.684;2023-02-28T00:52:08;24.30;;;11.60;;
28078;SDS011;15388;42.238;24.684;2023-02-28T00:54:33;17.50;;;11.13;;
28078;SDS011;15388;42.238;24.684;2023-02-28T00:56:59;21.00;;;12.38;;
28078;SDS011;15388;42.238;24.684;2023-02-28T00:59:24;23.40;;;13.10;;
28078;SDS011;15388;42.238;24.684;2023-02-28T01:01:49;24.13;;;12.05;;
28078;SDS011;15388;42.238;24.684;2023-02-28T01:04:15;19.42;;;12.00;;
28078;SDS011;15388;42.238;24.684;2023-02-28T01:06:40;25.65;;;13.77;;
28078;SDS011;15388;42.238;24.684;2023-02-28T01:09:06;19.10;;;12.23;;
28078;SDS011;15388;42.238;24.684;2023-02-28T01:11:31;25.70;;;13.27;;
28078;SDS011;15388;42.238;24.684;2023-02-28T01:13:57;23.05;;;12.70;;
28078;SDS011;15388;42.238;24.684;2023-02-28T01:16:22;23.63;;;12.80;;
28078;SDS011;15388;42.238;24.684;2023-02-28T01:18:48;26.98;;;12.60;;
28078;SDS011;15388;42.238;24.684;2023-02-28T01:21:14;21.30;;;12.75;;
28078;SDS011;15388;42.238;24.684;2023-02-28T01:23:40;22.15;;;12.35;;
28078;SDS011;15388;42.238;24.684;2023-02-28T01:28:31;27.27;;;13.82;;
28078;SDS011;15388;42.238;24.684;2023-02-28T01:30:56;21.80;;;12.05;;
28078;SDS011;15388;42.238;24.684;2023-02-28T01:33:21;25.75;;;13.02;;
28078;SDS011;15388;42.238;24.684;2023-02-28T01:35:47;23.73;;;13.23;;
28078;SDS011;15388;42.238;24.684;2023-02-28T01:38:12;21.67;;;12.10;;
28078;SDS011;15388;42.238;24.684;2023-02-28T01:40:37;21.65;;;11.23;;
28078;SDS011;15388;42.238;24.684;2023-02-28T01:43:04;19.92;;;12.35;;
28078;SDS011;15388;42.238;24.684;2023-02-28T01:45:30;22.30;;;12.27;;
28078;SDS011;15388;42.238;24.684;2023-02-28T01:47:58;27.15;;;12.45;;
28078;SDS011;15388;42.238;24.684;2023-02-28T01:50:26;21.63;;;11.63;;
28078;SDS011;15388;42.238;24.684;2023-02-28T01:55:18;30.33;;;12.40;;
28078;SDS011;15388;42.238;24.684;2023-02-28T01:57:48;21.65;;;11.85;;
28078;SDS011;15388;42.238;24.684;2023-02-28T02:00:16;20.52;;;13.38;;
28078;SDS011;15388;42.238;24.684;2023-02-28T02:02:42;23.98;;;13.73;;
28078;SDS011;15388;42.238;24.684;2023-02-28T02:05:09;25.83;;;13.57;;
28078;SDS011;15388;42.238;24.684;2023-02-28T02:07:35;18.27;;;11.67;;
28078;SDS011;15388;42.238;24.684;2023-02-28T02:10:12;26.08;;;12.77;;
28078;SDS011;15388;42.238;24.684;2023-02-28T02:15:32;26.05;;;11.75;;
28078;SDS011;15388;42.238;24.684;2023-02-28T02:18:01;18.95;;;10.20;;
28078;SDS011;15388;42.238;24.684;2023-02-28T02:31:01;18.77;;;9.75;;
28078;SDS011;15388;42.238;24.684;2023-02-28T02:41:18;26.15;;;13.88;;
28078;SDS011;15388;42.238;24.684;2023-02-28T02:46:14;23.23;;;13.10;;
28078;SDS011;15388;42.238;24.684;2023-02-28T02:48:40;30.98;;;14.65;;
28078;SDS011;15388;42.238;24.684;2023-02-28T02:51:09;40.63;;;15.45;;
28078;SDS011;15388;42.238;24.684;2023-02-28T02:53:38;30.58;;;14.93;;
28078;SDS011;15388;42.238;24.684;2023-02-28T02:56:06;28.52;;;14.88;;
28078;SDS011;15388;42.238;24.684;2023-02-28T02:58:33;31.25;;;16.02;;
28078;SDS011;15388;42.238;24.684;2023-02-28T03:01:00;29.08;;;16.60;;
28078;SDS011;15388;42.238;24.684;2023-02-28T03:03:26;26.83;;;16.63;;
28078;SDS011;15388;42.238;24.684;2023-02-28T03:05:59;26.85;;;16.95;;
28078;SDS011;15388;42.238;24.684;2023-02-28T03:08:25;35.15;;;18.45;;
28078;SDS011;15388;42.238;24.684;2023-02-28T03:10:51;28.90;;;16.90;;
28078;SDS011;15388;42.238;24.684;2023-02-28T03:13:23;33.47;;;18.17;;
28078;SDS011;15388;42.238;24.684;2023-02-28T03:15:58;28.50;;;17.10;;
28078;SDS011;15388;42.238;24.684;2023-02-28T03:18:36;31.92;;;17.75;;
28078;SDS011;15388;42.238;24.684;2023-02-28T03:23:58;26.20;;;17.38;;
28078;SDS011;15388;42.238;24.684;2023-02-28T03:26:27;31.05;;;17.67;;
28078;SDS011;15388;42.238;24.684;2023-02-28T03:32:00;29.65;;;18.27;;
28078;SDS011;15388;42.238;24.684;2023-02-28T03:36:55;33.97;;;19.38;;
28078;SDS011;15388;42.238;24.684;2023-02-28T03:39:30;31.23;;;17.30;;
28078;SDS011;15388;42.238;24.684;2023-02-28T03:41:59;30.10;;;17.85;;
28078;SDS011;15388;42.238;24.684;2023-02-28T03:44:28;37.08;;;17.55;;
28078;SDS011;15388;42.238;24.684;2023-02-28T03:46:57;33.53;;;18.88;;
28078;SDS011;15388;42.238;24.684;2023-02-28T03:49:25;30.05;;;18.77;;
28078;SDS011;15388;42.238;24.684;2023-02-28T03:51:52;34.80;;;19.02;;
28078;SDS011;15388;42.238;24.684;2023-02-28T03:54:23;30.40;;;17.63;;
28078;SDS011;15388;42.238;24.684;2023-02-28T03:56:52;30.63;;;18.60;;
28078;SDS011;15388;42.238;24.684;2023-02-28T03:59:24;31.67;;;17.92;;
28078;SDS011;15388;42.238;24.684;2023-02-28T04:01:52;30.30;;;17.35;;
28078;SDS011;15388;42.238;24.684;2023-02-28T04:04:17;31.17;;;17.02;;
28078;SDS011;15388;42.238;24.684;2023-02-28T04:06:43;31.55;;;17.08;;
28078;SDS011;15388;42.238;24.684;2023-02-28T04:09:09;29.27;;;15.90;;
28078;SDS011;15388;42.238;24.684;2023-02-28T04:11:36;28.20;;;17.15;;
28078;SDS011;15388;42.238;24.684;2023-02-28T04:14:02;26.17;;;16.63;;
28078;SDS011;15388;42.238;24.684;2023-02-28T04:16:28;28.42;;;17.25;;
28078;SDS011;15388;42.238;24.684;2023-02-28T04:18:53;30.05;;;16.67;;
28078;SDS011;15388;42.238;24.684;2023-02-28T04:21:19;27.88;;;17.20;;
28078;SDS011;15388;42.238;24.684;2023-02-28T04:23:47;26.60;;;16.77;;
28078;SDS011;15388;42.238;24.684;2023-02-28T04:26:13;30.80;;;16.35;;
28078;SDS011;15388;42.238;24.684;2023-02-28T04:28:39;32.08;;;16.30;;
28078;SDS011;15388;42.238;24.684;2023-02-28T04:31:04;27.60;;;17.17;;
28078;SDS011;15388;42.238;24.684;2023-02-28T04:33:30;30.80;;;16.08;;
28078;SDS011;15388;42.238;24.684;2023-02-28T04:35:59;25.98;;;15.18;;
28078;SDS011;15388;42.238;24.684;2023-02-28T04:38:25;25.35;;;15.35;;
28078;SDS011;15388;42.238;24.684;2023-02-28T04:40:50;25.02;;;16.23;;
28078;SDS011;15388;42.238;24.684;2023-02-28T04:43:15;32.15;;;18.13;;
28078;SDS011;15388;42.238;24.684;2023-02-28T04:45:40;33.45;;;17.15;;
28078;SDS011;15388;42.238;24.684;2023-02-28T04:48:06;32.55;;;15.85;;
28078;SDS011;15388;42.238;24.684;2023-02-28T04:50:31;20.42;;;14.40;;
28078;SDS011;15388;42.238;24.684;2023-02-28T04:52:56;27.45;;;16.02;;
28078;SDS011;15388;42.238;24.684;2023-02-28T04:55:21;31.25;;;16.20;;
28078;SDS011;15388;42.238;24.684;2023-02-28T04:57:47;25.23;;;16.13;;
28078;SDS011;15388;42.238;24.684;2023-02-28T05:00:12;26.95;;;16.95;;
28078;SDS011;15388;42.238;24.684;2023-02-28T05:02:40;30.52;;;18.67;;
28078;SDS011;15388;42.238;24.684;2023-02-28T05:05:05;23.85;;;16.85;;
28078;SDS011;15388;42.238;24.684;2023-02-28T05:07:31;27.98;;;16.20;;
28078;SDS011;15388;42.238;24.684;2023-02-28T05:09:56;30.42;;;17.27;;
28078;SDS011;15388;42.238;24.684;2023-02-28T05:12:21;38.78;;;19.73;;
28078;SDS011;15388;42.238;24.684;2023-02-28T05:14:47;28.17;;;16.60;;
28078;SDS011;15388;42.238;24.684;2023-02-28T05:17:13;26.27;;;14.60;;
28078;SDS011;15388;42.238;24.684;2023-02-28T05:19:38;31.75;;;16.23;;
28078;SDS011;15388;42.238;24.684;2023-02-28T05:22:03;25.25;;;15.30;;
28078;SDS011;15388;42.238;24.684;2023-02-28T05:24:29;30.73;;;16.73;;
28078;SDS011;15388;42.238;24.684;2023-02-28T05:26:55;28.85;;;17.02;;
28078;SDS011;15388;42.238;24.684;2023-02-28T05:29:21;24.40;;;16.33;;
28078;SDS011;15388;42.238;24.684;2023-02-28T05:31:46;36.30;;;19.73;;
28078;SDS011;15388;42.238;24.684;2023-02-28T05:34:11;33.03;;;17.30;;
28078;SDS011;15388;42.238;24.684;2023-02-28T05:36:38;24.15;;;16.13;;
28078;SDS011;15388;42.238;24.684;2023-02-28T05:39:04;27.17;;;17.50;;
28078;SDS011;15388;42.238;24.684;2023-02-28T05:41:30;26.73;;;15.55;;
28078;SDS011;15388;42.238;24.684;2023-02-28T05:43:55;25.95;;;16.27;;
28078;SDS011;15388;42.238;24.684;2023-02-28T05:46:22;29.38;;;15.82;;
28078;SDS011;15388;42.238;24.684;2023-02-28T05:48:47;32.55;;;17.70;;
28078;SDS011;15388;42.238;24.684;2023-02-28T05:51:13;31.48;;;17.27;;
28078;SDS011;15388;42.238;24.684;2023-02-28T05:53:38;33.97;;;17.70;;
28078;SDS011;15388;42.238;24.684;2023-02-28T05:56:03;30.42;;;17.27;;
28078;SDS011;15388;42.238;24.684;2023-02-28T05:58:28;39.92;;;19.65;;
28078;SDS011;15388;42.238;24.684;2023-02-28T06:00:56;31.38;;;17.35;;
28078;SDS011;15388;42.238;24.684;2023-02-28T06:03:21;26.92;;;17.27;;
28078;SDS011;15388;42.238;24.684;2023-02-28T06:05:47;30.98;;;18.45;;
28078;SDS011;15388;42.238;24.684;2023-02-28T06:08:12;27.35;;;17.27;;
28078;SDS011;15388;42.238;24.684;2023-02-28T06:10:37;29.13;;;17.60;;
28078;SDS011;15388;42.238;24.684;2023-02-28T06:13:03;25.13;;;17.25;;
28078;SDS011;15388;42.238;24.684;2023-02-28T06:15:29;27.00;;;16.30;;
28078;SDS011;15388;42.238;24.684;2023-02-28T06:17:55;26.77;;;17.15;;
28078;SDS011;15388;42.238;24.684;2023-02-28T06:20:21;33.58;;;17.20;;
28078;SDS011;15388;42.238;24.684;2023-02-28T06:22:47;28.65;;;17.02;;
28078;SDS011;15388;42.238;24.684;2023-02-28T06:25:12;29.42;;;16.02;;
28078;SDS011;15388;42.238;24.684;2023-02-28T06:27:37;24.85;;;16.15;;
28078;SDS011;15388;42.238;24.684;2023-02-28T06:30:03;26.92;;;16.63;;
28078;SDS011;15388;42.238;24.684;2023-02-28T06:32:28;28.50;;;17.42;;
28078;SDS011;15388;42.238;24.684;2023-02-28T06:34:53;34.92;;;17.40;;
28078;SDS011;15388;42.238;24.684;2023-02-28T06:37:19;29.38;;;16.13;;
28078;SDS011;15388;42.238;24.684;2023-02-28T06:39:44;35.33;;;20.52;;
28078;SDS011;15388;42.238;24.684;2023-02-28T06:42:09;31.02;;;17.55;;
28078;SDS011;15388;42.238;24.684;2023-02-28T06:44:35;30.95;;;18.42;;
28078;SDS011;15388;42.238;24.684;2023-02-28T06:47:01;26.42;;;18.30;;
28078;SDS011;15388;42.238;24.684;2023-02-28T06:49:28;34.60;;;19.85;;
28078;SDS011;15388;42.238;24.684;2023-02-28T06:51:53;39.35;;;19.60;;
28078;SDS011;15388;42.238;24.684;2023-02-28T06:54:19;32.80;;;18.80;;
28078;SDS011;15388;42.238;24.684;2023-02-28T06:56:44;32.60;;;18.33;;
28078;SDS011;15388;42.238;24.684;2023-02-28T06:59:09;33.40;;;19.40;;
28078;SDS011;15388;42.238;24.684;2023-02-28T07:01:34;34.30;;;19.05;;
28078;SDS011;15388;42.238;24.684;2023-02-28T07:04:00;42.17;;;20.02;;
28078;SDS011;15388;42.238;24.684;2023-02-28T07:06:27;34.25;;;19.38;;
28078;SDS011;15388;42.238;24.684;2023-02-28T07:08:52;30.88;;;19.33;;
28078;SDS011;15388;42.238;24.684;2023-02-28T07:11:18;25.85;;;17.17;;
28078;SDS011;15388;42.238;24.684;2023-02-28T07:13:44;29.15;;;19.40;;
28078;SDS011;15388;42.238;24.684;2023-02-28T07:16:10;27.60;;;18.73;;
28078;SDS011;15388;42.238;24.684;2023-02-28T07:18:36;26.60;;;18.27;;
28078;SDS011;15388;42.238;24.684;2023-02-28T07:21:01;26.67;;;18.35;;
28078;SDS011;15388;42.238;24.684;2023-02-28T07:23:27;43.25;;;19.33;;
28078;SDS011;15388;42.238;24.684;2023-02-28T07:25:52;31.45;;;18.25;;
28078;SDS011;15388;42.238;24.684;2023-02-28T07:28:17;35.38;;;18.60;;
28078;SDS011;15388;42.238;24.684;2023-02-28T07:30:42;45.67;;;19.10;;
28078;SDS011;15388;42.238;24.684;2023-02-28T07:33:08;27.80;;;17.58;;
28078;SDS011;15388;42.238;24.684;2023-02-28T07:35:33;34.38;;;18.90;;
28078;SDS011;15388;42.238;24.684;2023-02-28T07:37:59;26.45;;;17.80;;
28078;SDS011;15388;42.238;24.684;2023-02-28T07:40:24;34.20;;;17.92;;
28078;SDS011;15388;42.238;24.684;2023-02-28T07:42:50;29.23;;;17.55;;
28078;SDS011;15388;42.238;24.684;2023-02-28T07:45:15;32.08;;;19.83;;
28078;SDS011;15388;42.238;24.684;2023-02-28T07:47:41;31.70;;;18.63;;
28078;SDS011;15388;42.238;24.684;2023-02-28T07:50:07;32.25;;;19.15;;
28078;SDS011;15388;42.238;24.684;2023-02-28T07:52:32;26.25;;;17.38;;
28078;SDS011;15388;42.238;24.684;2023-02-28T07:54:58;29.52;;;17.38;;
28078;SDS011;15388;42.238;24.684;2023-02-28T07:57:23;28.45;;;18.48;;
28078;SDS011;15388;42.238;24.684;2023-02-28T07:59:48;30.98;;;19.45;;
28078;SDS011;15388;42.238;24.684;2023-02-28T08:02:15;41.25;;;19.10;;
28078;SDS011;15388;42.238;24.684;2023-02-28T08:04:41;33.70;;;17.88;;
28078;SDS011;15388;42.238;24.684;2023-02-28T08:07:06;35.10;;;17.75;;
28078;SDS011;15388;42.238;24.684;2023-02-28T08:09:31;37.08;;;18.10;;
28078;SDS011;15388;42.238;24.684;2023-02-28T08:11:57;29.17;;;17.55;;
28078;SDS011;15388;42.238;24.684;2023-02-28T08:14:22;33.95;;;18.73;;
28078;SDS011;15388;42.238;24.684;2023-02-28T08:16:48;34.22;;;19.35;;
28078;SDS011;15388;42.238;24.684;2023-02-28T08:19:13;34.00;;;18.75;;
28078;SDS011;15388;42.238;24.684;2023-02-28T08:21:38;34.67;;;19.60;;
28078;SDS011;15388;42.238;24.684;2023-02-28T08:24:04;29.40;;;19.58;;
28078;SDS011;15388;42.238;24.684;2023-02-28T08:26:30;37.83;;;19.98;;
28078;SDS011;15388;42.238;24.684;2023-02-28T08:28:55;36.22;;;21.83;;
28078;SDS011;15388;42.238;24.684;2023-02-28T08:31:20;35.72;;;19.77;;
28078;SDS011;15388;42.238;24.684;2023-02-28T08:33:48;35.72;;;21.35;;
28078;SDS011;15388;42.238;24.684;2023-02-28T08:36:16;44.88;;;21.50;;
28078;SDS011;15388;42.238;24.684;2023-02-28T08:38:41;40.38;;;20.98;;
28078;SDS011;15388;42.238;24.684;2023-02-28T08:41:09;44.25;;;22.77;;
28078;SDS011;15388;42.238;24.684;2023-02-28T08:43:35;41.97;;;22.85;;
28078;SDS011;15388;42.238;24.684;2023-02-28T08:46:01;37.67;;;22.88;;
28078;SDS011;15388;42.238;24.684;2023-02-28T08:48:27;40.25;;;22.02;;
28078;SDS011;15388;42.238;24.684;2023-02-28T08:51:03;45.28;;;24.67;;
28078;SDS011;15388;42.238;24.684;2023-02-28T08:53:29;39.00;;;23.33;;
28078;SDS011;15388;42.238;24.684;2023-02-28T08:56:01;36.08;;;23.15;;
28078;SDS011;15388;42.238;24.684;2023-02-28T08:58:27;44.65;;;24.40;;
28078;SDS011;15388;42.238;24.684;2023-02-28T09:00:52;36.90;;;23.00;;
28078;SDS011;15388;42.238;24.684;2023-02-28T09:03:18;44.58;;;23.80;;
28078;SDS011;15388;42.238;24.684;2023-02-28T09:05:53;36.85;;;24.83;;
28078;SDS011;15388;42.238;24.684;2023-02-28T09:08:18;42.33;;;24.88;;
28078;SDS011;15388;42.238;24.684;2023-02-28T09:10:44;38.92;;;24.27;;
28078;SDS011;15388;42.238;24.684;2023-02-28T09:13:10;43.27;;;24.77;;
28078;SDS011;15388;42.238;24.684;2023-02-28T09:15:37;39.00;;;25.10;;
28078;SDS011;15388;42.238;24.684;2023-02-28T09:18:02;34.85;;;23.85;;
28078;SDS011;15388;42.238;24.684;2023-02-28T09:20:27;42.20;;;24.27;;
28078;SDS011;15388;42.238;24.684;2023-02-28T09:22:52;46.03;;;27.30;;
28078;SDS011;15388;42.238;24.684;2023-02-28T09:25:18;45.13;;;24.90;;
28078;SDS011;15388;42.238;24.684;2023-02-28T09:27:43;47.92;;;26.45;;
28078;SDS011;15388;42.238;24.684;2023-02-28T09:30:10;40.50;;;26.38;;
28078;SDS011;15388;42.238;24.684;2023-02-28T09:32:37;55.28;;;30.55;;
28078;SDS011;15388;42.238;24.684;2023-02-28T09:35:02;52.13;;;29.50;;
28078;SDS011;15388;42.238;24.684;2023-02-28T09:37:28;40.25;;;26.77;;
28078;SDS011;15388;42.238;24.684;2023-02-28T09:39:54;44.75;;;26.98;;
28078;SDS011;15388;42.238;24.684;2023-02-28T09:42:25;36.75;;;24.98;;
28078;SDS011;15388;42.238;24.684;2023-02-28T09:44:54;35.83;;;25.65;;
28078;SDS011;15388;42.238;24.684;2023-02-28T09:47:39;51.20;;;27.05;;
28078;SDS011;15388;42.238;24.684;2023-02-28T09:50:15;58.28;;;33.58;;
28078;SDS011;15388;42.238;24.684;2023-02-28T09:52:42;45.28;;;30.83;;
28078;SDS011;15388;42.238;24.684;2023-02-28T09:57:40;60.58;;;31.98;;
28078;SDS011;15388;42.238;24.684;2023-02-28T10:05:16;48.45;;;28.83;;
28078;SDS011;15388;42.238;24.684;2023-02-28T10:10:20;46.60;;;29.90;;
28078;SDS011;15388;42.238;24.684;2023-02-28T10:12:46;44.38;;;29.75;;
28078;SDS011;15388;42.238;24.684;2023-02-28T10:15:15;46.75;;;29.50;;
28078;SDS011;15388;42.238;24.684;2023-02-28T10:17:41;43.45;;;28.83;;
28078;SDS011;15388;42.238;24.684;2023-02-28T10:20:10;44.58;;;29.10;;
28078;SDS011;15388;42.238;24.684;2023-02-28T10:25:20;53.88;;;32.08;;
28078;SDS011;15388;42.238;24.684;2023-02-28T10:27:46;45.90;;;28.27;;
28078;SDS011;15388;42.238;24.684;2023-02-28T10:30:11;51.45;;;30.60;;
28078;SDS011;15388;42.238;24.684;2023-02-28T10:37:30;41.47;;;29.38;;
28078;SDS011;15388;42.238;24.684;2023-02-28T10:39:56;51.67;;;26.90;;
28078;SDS011;15388;42.238;24.684;2023-02-28T10:42:25;39.70;;;27.77;;
28078;SDS011;15388;42.238;24.684;2023-02-28T10:47:36;70.35;;;40.55;;
28078;SDS011;15388;42.238;24.684;2023-02-28T10:50:08;50.33;;;29.00;;
28078;SDS011;15388;42.238;24.684;2023-02-28T10:52:51;68.47;;;36.83;;
28078;SDS011;15388;42.238;24.684;2023-02-28T10:55:20;70.72;;;38.42;;
28078;SDS011;15388;42.238;24.684;2023-02-28T10:57:46;74.43;;;41.10;;
28078;SDS011;15388;42.238;24.684;2023-02-28T11:00:22;75.07;;;30.63;;
28078;SDS011;15388;42.238;24.684;2023-02-28T11:02:47;52.85;;;32.58;;
28078;SDS011;15388;42.238;24.684;2023-02-28T11:05:29;52.72;;;33.10;;
28078;SDS011;15388;42.238;24.684;2023-02-28T11:08:03;66.15;;;34.17;;
28078;SDS011;15388;42.238;24.684;2023-02-28T11:10:30;54.05;;;32.20;;
28078;SDS011;15388;42.238;24.684;2023-02-28T11:12:59;53.60;;;29.60;;
28078;SDS011;15388;42.238;24.684;2023-02-28T11:15:26;62.22;;;36.30;;
28078;SDS011;15388;42.238;24.684;2023-02-28T11:20:28;59.08;;;32.63;;
28078;SDS011;15388;42.238;24.684;2023-02-28T11:22:53;73.30;;;41.20;;
28078;SDS011;15388;42.238;24.684;2023-02-28T11:25:33;58.85;;;33.97;;
28078;SDS011;15388;42.238;24.684;2023-02-28T11:27:59;76.82;;;37.78;;
28078;SDS011;15388;42.238;24.684;2023-02-28T11:32:59;67.80;;;34.38;;
28078;SDS011;15388;42.238;24.684;2023-02-28T11:37:51;59.30;;;36.75;;
28078;SDS011;15388;42.238;24.684;2023-02-28T11:40:21;67.43;;;38.92;;
28078;SDS011;15388;42.238;24.684;2023-02-28T11:50:26;61.60;;;39.17;;
28078;SDS011;15388;42.238;24.684;2023-02-28T11:53:00;82.07;;;44.92;;
28078;SDS011;15388;42.238;24.684;2023-02-28T11:56:00;69.20;;;45.67;;
28078;SDS011;15388;42.238;24.684;2023-02-28T11:58:26;67.43;;;41.63;;
28078;SDS011;15388;42.238;24.684;2023-02-28T12:11:45;66.72;;;38.85;;
28078;SDS011;15388;42.238;24.684;2023-02-28T12:13:49;59.88;;;40.28;;
28078;SDS011;15388;42.238;24.684;2023-02-28T12:18:47;58.47;;;37.93;;
28078;SDS011;15388;42.238;24.684;2023-02-28T12:21:18;60.80;;;38.97;;
28078;SDS011;15388;42.238;24.684;2023-02-28T12:26:38;109.35;;;67.50;;
28078;SDS011;15388;42.238;24.684;2023-02-28T12:29:09;87.78;;;49.30;;
28078;SDS011;15388;42.238;24.684;2023-02-28T12:31:36;62.10;;;38.95;;
28078;SDS011;15388;42.238;24.684;2023-02-28T12:34:12;64.07;;;38.22;;
28078;SDS011;15388;42.238;24.684;2023-02-28T12:36:38;59.75;;;37.47;;
28078;SDS011;15388;42.238;24.684;2023-02-28T12:39:09;60.92;;;37.70;;
28078;SDS011;15388;42.238;24.684;2023-02-28T12:41:42;57.05;;;38.05;;
28078;SDS011;15388;42.238;24.684;2023-02-28T12:44:13;69.10;;;38.20;;
28078;SDS011;15388;42.238;24.684;2023-02-28T12:46:51;66.03;;;37.67;;
28078;SDS011;15388;42.238;24.684;2023-02-28T12:49:27;66.57;;;41.10;;
28078;SDS011;15388;42.238;24.684;2023-02-28T12:51:56;65.10;;;40.38;;
28078;SDS011;15388;42.238;24.684;2023-02-28T13:02:01;73.07;;;41.03;;
28078;SDS011;15388;42.238;24.684;2023-02-28T13:10:02;55.03;;;37.13;;
28078;SDS011;15388;42.238;24.684;2023-02-28T13:15:03;54.15;;;35.20;;
28078;SDS011;15388;42.238;24.684;2023-02-28T13:17:29;63.90;;;34.85;;
28078;SDS011;15388;42.238;24.684;2023-02-28T13:24:49;63.75;;;37.00;;
28078;SDS011;15388;42.238;24.684;2023-02-28T13:29:40;61.75;;;36.90;;
28078;SDS011;15388;42.238;24.684;2023-02-28T13:35:34;67.43;;;35.63;;
28078;SDS011;15388;42.238;24.684;2023-02-28T13:42:33;55.33;;;33.53;;
28078;SDS011;15388;42.238;24.684;2023-02-28T13:47:28;58.22;;;35.05;;
28078;SDS011;15388;42.238;24.684;2023-02-28T13:49:54;63.35;;;35.13;;
28078;SDS011;15388;42.238;24.684;2023-02-28T13:52:41;60.17;;;34.95;;
28078;SDS011;15388;42.238;24.684;2023-02-28T13:57:47;51.05;;;34.17;;
28078;SDS011;15388;42.238;24.684;2023-02-28T14:05:16;51.90;;;35.63;;
28078;SDS011;15388;42.238;24.684;2023-02-28T14:07:47;52.63;;;34.08;;
28078;SDS011;15388;42.238;24.684;2023-02-28T14:12:59;53.65;;;31.95;;
28078;SDS011;15388;42.238;24.684;2023-02-28T14:17:51;57.08;;;33.80;;
28078;SDS011;15388;42.238;24.684;2023-02-28T14:20:17;51.95;;;32.30;;
28078;SDS011;15388;42.238;24.684;2023-02-28T14:38:31;64.13;;;41.08;;
28078;SDS011;15388;42.238;24.684;2023-02-28T14:40:58;48.45;;;34.13;;
28078;SDS011;15388;42.238;24.684;2023-02-28T14:43:27;47.05;;;31.20;;
28078;SDS011;15388;42.238;24.684;2023-02-28T14:46:02;65.85;;;37.90;;
28078;SDS011;15388;42.238;24.684;2023-02-28T14:48:29;65.50;;;41.75;;
28078;SDS011;15388;42.238;24.684;2023-02-28T14:50:59;48.78;;;33.00;;
28078;SDS011;15388;42.238;24.684;2023-02-28T14:53:26;49.65;;;30.38;;
28078;SDS011;15388;42.238;24.684;2023-02-28T14:58:28;35.83;;;24.20;;
28078;SDS011;15388;42.238;24.684;2023-02-28T15:00:54;44.28;;;29.23;;
28078;SDS011;15388;42.238;24.684;2023-02-28T15:03:39;46.05;;;28.40;;
28078;SDS011;15388;42.238;24.684;2023-02-28T15:06:05;47.53;;;29.85;;
28078;SDS011;15388;42.238;24.684;2023-02-28T15:08:31;52.00;;;30.77;;
28078;SDS011;15388;42.238;24.684;2023-02-28T15:11:16;41.47;;;27.75;;
28078;SDS011;15388;42.238;24.684;2023-02-28T15:13:53;43.33;;;31.05;;
28078;SDS011;15388;42.238;24.684;2023-02-28T15:18:57;41.30;;;28.37;;
28078;SDS011;15388;42.238;24.684;2023-02-28T15:23:59;32.40;;;24.23;;
28078;SDS011;15388;42.238;24.684;2023-02-28T15:26:36;40.97;;;26.85;;
28078;SDS011;15388;42.238;24.684;2023-02-28T15:29:04;43.78;;;27.17;;
28078;SDS011;15388;42.238;24.684;2023-02-28T15:31:34;43.45;;;27.73;;
28078;SDS011;15388;42.238;24.684;2023-02-28T15:34:05;46.42;;;31.05;;
28078;SDS011;15388;42.238;24.684;2023-02-28T15:36:32;46.63;;;30.65;;
28078;SDS011;15388;42.238;24.684;2023-02-28T15:38:58;59.17;;;36.08;;
28078;SDS011;15388;42.238;24.684;2023-02-28T15:41:26;56.28;;;35.80;;
28078;SDS011;15388;42.238;24.684;2023-02-28T15:46:36;62.28;;;39.38;;
28078;SDS011;15388;42.238;24.684;2023-02-28T15:49:01;76.57;;;44.63;;
28078;SDS011;15388;42.238;24.684;2023-02-28T15:54:02;60.10;;;36.30;;
28078;SDS011;15388;42.238;24.684;2023-02-28T15:56:40;48.17;;;33.78;;
28078;SDS011;15388;42.238;24.684;2023-02-28T15:59:18;54.30;;;33.88;;
28078;SDS011;15388;42.238;24.684;2023-02-28T16:01:44;49.85;;;32.35;;
28078;SDS011;15388;42.238;24.684;2023-02-28T16:06:39;71.65;;;34.85;;
28078;SDS011;15388;42.238;24.684;2023-02-28T16:09:08;59.75;;;35.35;;
28078;SDS011;15388;42.238;24.684;2023-02-28T16:11:35;57.00;;;32.97;;
28078;SDS011;15388;42.238;24.684;2023-02-28T16:14:01;49.13;;;27.50;;
28078;SDS011;15388;42.238;24.684;2023-02-28T16:16:26;51.53;;;27.50;;
28078;SDS011;15388;42.238;24.684;2023-02-28T16:18:52;56.75;;;29.60;;
28078;SDS011;15388;42.238;24.684;2023-02-28T16:21:18;51.38;;;27.48;;
28078;SDS011;15388;42.238;24.684;2023-02-28T16:23:45;45.35;;;27.33;;
28078;SDS011;15388;42.238;24.684;2023-02-28T16:26:18;53.80;;;29.50;;
28078;SDS011;15388;42.238;24.684;2023-02-28T16:28:44;54.83;;;28.13;;
28078;SDS011;15388;42.238;24.684;2023-02-28T16:31:09;50.22;;;25.73;;
28078;SDS011;15388;42.238;24.684;2023-02-28T16:33:39;49.65;;;26.02;;
28078;SDS011;15388;42.238;24.684;2023-02-28T16:36:05;48.17;;;25.63;;
28078;SDS011;15388;42.238;24.684;2023-02-28T16:38:31;46.73;;;24.80;;
28078;SDS011;15388;42.238;24.684;2023-02-28T16:40:57;47.30;;;26.98;;
28078;SDS011;15388;42.238;24.684;2023-02-28T16:43:24;52.10;;;27.15;;
28078;SDS011;15388;42.238;24.684;2023-02-28T16:45:54;48.28;;;24.55;;
28078;SDS011;15388;42.238;24.684;2023-02-28T16:48:20;38.72;;;23.25;;
28078;SDS011;15388;42.238;24.684;2023-02-28T16:50:45;43.88;;;24.98;;
28078;SDS011;15388;42.238;24.684;2023-02-28T16:53:10;49.22;;;26.13;;
28078;SDS011;15388;42.238;24.684;2023-02-28T16:55:36;46.03;;;24.52;;